sensor_id;sensor_type;location;lat;lon;timestamp;temperature;humidity
10433;DHT22;5263;48.680;9.004;2023-05-31T00:02:19;13.60;78.40
10433;DHT22;5263;48.680;9.004;2023-05-31T00:04:44;13.50;78.80
10433;DHT22;5263;48.680;9.004;2023-05-31T00:07:10;13.50;78.80
10433;DHT22;5263;48.680;9.004;2023-05-31T00:09:36;13.50;79.50
10433;DHT22;5263;48.680;9.004;2023-05-31T00:12:01;13.40;79.10
10433;DHT22;5263;48.680;9.004;2023-05-31T00:14:27;13.40;79.50
10433;DHT22;5263;48.680;9.004;2023-05-31T00:16:52;13.40;81.00
10433;DHT22;5263;48.680;9.004;2023-05-31T00:19:18;13.40;80.00
10433;DHT22;5263;48.680;9.004;2023-05-31T00:21:44;13.30;79.70
10433;DHT22;5263;48.680;9.004;2023-05-31T00:24:13;13.50;81.40
10433;DHT22;5263;48.680;9.004;2023-05-31T00:26:39;13.30;80.30
10433;DHT22;5263;48.680;9.004;2023-05-31T00:29:05;13.50;80.10
10433;DHT22;5263;48.680;9.004;2023-05-31T00:31:30;13.50;80.10
10433;DHT22;5263;48.680;9.004;2023-05-31T00:33:57;13.40;79.50
10433;DHT22;5263;48.680;9.004;2023-05-31T00:36:23;13.40;79.20
10433;DHT22;5263;48.680;9.004;2023-05-31T00:38:49;13.60;79.30
10433;DHT22;5263;48.680;9.004;2023-05-31T00:41:14;13.70;79.80
10433;DHT22;5263;48.680;9.004;2023-05-31T00:43:40;13.60;78.80
10433;DHT22;5263;48.680;9.004;2023-05-31T00:46:09;13.70;78.40
10433;DHT22;5263;48.680;9.004;2023-05-31T00:48:37;14.00;77.70
10433;DHT22;5263;48.680;9.004;2023-05-31T00:51:05;13.90;77.30
10433;DHT22;5263;48.680;9.004;2023-05-31T00:53:31;13.80;76.70
10433;DHT22;5263;48.680;9.004;2023-05-31T00:55:58;13.70;76.10
10433;DHT22;5263;48.680;9.004;2023-05-31T00:58:26;13.70;76.30
10433;DHT22;5263;48.680;9.004;2023-05-31T01:00:53;13.70;75.30
10433;DHT22;5263;48.680;9.004;2023-05-31T01:03:19;13.70;76.30
10433;DHT22;5263;48.680;9.004;2023-05-31T01:05:46;13.60;76.80
10433;DHT22;5263;48.680;9.004;2023-05-31T01:08:12;13.50;76.70
10433;DHT22;5263;48.680;9.004;2023-05-31T01:10:40;13.70;75.90
10433;DHT22;5263;48.680;9.004;2023-05-31T01:13:31;13.50;75.10
10433;DHT22;5263;48.680;9.004;2023-05-31T01:16:16;13.50;75.60
10433;DHT22;5263;48.680;9.004;2023-05-31T01:18:52;13.40;75.90
10433;DHT22;5263;48.680;9.004;2023-05-31T01:21:21;13.70;76.20
10433;DHT22;5263;48.680;9.004;2023-05-31T01:26:44;13.90;75.70
10433;DHT22;5263;48.680;9.004;2023-05-31T01:29:15;13.80;75.20
10433;DHT22;5263;48.680;9.004;2023-05-31T01:31:44;13.60;74.80
10433;DHT22;5263;48.680;9.004;2023-05-31T01:34:11;13.50;76.30
10433;DHT22;5263;48.680;9.004;2023-05-31T01:36:37;13.50;78.30
10433;DHT22;5263;48.680;9.004;2023-05-31T01:39:02;13.40;76.00
10433;DHT22;5263;48.680;9.004;2023-05-31T01:41:31;13.40;77.40
10433;DHT22;5263;48.680;9.004;2023-05-31T01:43:59;13.30;75.90
10433;DHT22;5263;48.680;9.004;2023-05-31T01:46:25;13.20;76.40
10433;DHT22;5263;48.680;9.004;2023-05-31T01:48:52;13.20;77.60
10433;DHT22;5263;48.680;9.004;2023-05-31T01:51:19;13.30;78.30
10433;DHT22;5263;48.680;9.004;2023-05-31T01:53:46;13.10;77.30
10433;DHT22;5263;48.680;9.004;2023-05-31T01:56:12;13.00;78.60
10433;DHT22;5263;48.680;9.004;2023-05-31T01:58:42;12.90;78.00
10433;DHT22;5263;48.680;9.004;2023-05-31T02:01:12;13.20;79.60
10433;DHT22;5263;48.680;9.004;2023-05-31T02:03:39;13.00;78.50
10433;DHT22;5263;48.680;9.004;2023-05-31T02:06:05;13.20;79.00
10433;DHT22;5263;48.680;9.004;2023-05-31T02:08:31;13.10;78.60
10433;DHT22;5263;48.680;9.004;2023-05-31T02:10:56;12.90;78.70
10433;DHT22;5263;48.680;9.004;2023-05-31T02:13:27;12.90;78.50
10433;DHT22;5263;48.680;9.004;2023-05-31T02:15:54;12.90;79.60
10433;DHT22;5263;48.680;9.004;2023-05-31T02:18:20;12.80;80.00
10433;DHT22;5263;48.680;9.004;2023-05-31T02:20:47;12.90;80.10
10433;DHT22;5263;48.680;9.004;2023-05-31T02:23:13;12.80;78.80
10433;DHT22;5263;48.680;9.004;2023-05-31T02:25:39;12.80;80.60
10433;DHT22;5263;48.680;9.004;2023-05-31T02:28:06;12.70;79.30
10433;DHT22;5263;48.680;9.004;2023-05-31T02:30:32;12.70;80.60
10433;DHT22;5263;48.680;9.004;2023-05-31T02:32:58;12.60;80.20
10433;DHT22;5263;48.680;9.004;2023-05-31T02:35:25;12.50;80.50
10433;DHT22;5263;48.680;9.004;2023-05-31T02:37:51;12.60;80.20
10433;DHT22;5263;48.680;9.004;2023-05-31T02:40:17;12.50;80.50
10433;DHT22;5263;48.680;9.004;2023-05-31T02:42:43;12.40;80.80
10433;DHT22;5263;48.680;9.004;2023-05-31T02:45:09;12.50;80.90
10433;DHT22;5263;48.680;9.004;2023-05-31T02:47:36;12.50;82.10
10433;DHT22;5263;48.680;9.004;2023-05-31T02:50:06;12.50;81.60
10433;DHT22;5263;48.680;9.004;2023-05-31T02:52:33;12.40;81.60
10433;DHT22;5263;48.680;9.004;2023-05-31T02:54:59;12.50;82.70
10433;DHT22;5263;48.680;9.004;2023-05-31T02:57:25;12.40;83.20
10433;DHT22;5263;48.680;9.004;2023-05-31T02:59:55;12.40;85.90
10433;DHT22;5263;48.680;9.004;2023-05-31T03:02:21;12.20;87.50
10433;DHT22;5263;48.680;9.004;2023-05-31T03:04:47;11.90;89.60
10433;DHT22;5263;48.680;9.004;2023-05-31T03:07:13;11.90;90.60
10433;DHT22;5263;48.680;9.004;2023-05-31T03:09:39;11.60;91.30
10433;DHT22;5263;48.680;9.004;2023-05-31T03:12:05;11.50;92.50
10433;DHT22;5263;48.680;9.004;2023-05-31T03:14:31;11.30;93.40
10433;DHT22;5263;48.680;9.004;2023-05-31T03:16:57;11.20;94.00
10433;DHT22;5263;48.680;9.004;2023-05-31T03:19:22;11.00;94.70
10433;DHT22;5263;48.680;9.004;2023-05-31T03:21:48;11.10;94.40
10433;DHT22;5263;48.680;9.004;2023-05-31T03:24:14;11.40;94.90
10433;DHT22;5263;48.680;9.004;2023-05-31T03:26:40;11.50;94.90
10433;DHT22;5263;48.680;9.004;2023-05-31T03:29:05;11.00;96.10
10433;DHT22;5263;48.680;9.004;2023-05-31T03:31:31;10.80;96.60
10433;DHT22;5263;48.680;9.004;2023-05-31T03:33:58;10.60;98.10
10433;DHT22;5263;48.680;9.004;2023-05-31T03:36:23;10.40;98.90
10433;DHT22;5263;48.680;9.004;2023-05-31T03:38:49;10.70;99.90
10433;DHT22;5263;48.680;9.004;2023-05-31T03:41:14;10.80;99.90
10433;DHT22;5263;48.680;9.004;2023-05-31T03:43:40;11.00;99.90
10433;DHT22;5263;48.680;9.004;2023-05-31T03:46:06;11.00;99.90
10433;DHT22;5263;48.680;9.004;2023-05-31T03:48:31;10.90;99.90
10433;DHT22;5263;48.680;9.004;2023-05-31T03:50:57;10.80;99.90
10433;DHT22;5263;48.680;9.004;2023-05-31T03:53:23;10.90;99.90
10433;DHT22;5263;48.680;9.004;2023-05-31T03:55:49;10.90;99.90
10433;DHT22;5263;48.680;9.004;2023-05-31T03:58:14;10.80;99.90
10433;DHT22;5263;48.680;9.004;2023-05-31T04:00:40;10.60;99.90
10433;DHT22;5263;48.680;9.004;2023-05-31T04:03:06;10.70;99.90
10433;DHT22;5263;48.680;9.004;2023-05-31T04:05:33;11.00;99.90
10433;DHT22;5263;48.680;9.004;2023-05-31T04:07:58;10.80;99.90
10433;DHT22;5263;48.680;9.004;2023-05-31T04:10:26;11.00;99.90
10433;DHT22;5263;48.680;9.004;2023-05-31T04:12:52;10.90;99.90
10433;DHT22;5263;48.680;9.004;2023-05-31T04:15:17;11.00;99.90
10433;DHT22;5263;48.680;9.004;2023-05-31T04:17:43;10.70;99.90
10433;DHT22;5263;48.680;9.004;2023-05-31T04:20:09;10.60;99.90
10433;DHT22;5263;48.680;9.004;2023-05-31T04:22:35;10.50;99.90
10433;DHT22;5263;48.680;9.004;2023-05-31T04:25:04;10.40;99.90
10433;DHT22;5263;48.680;9.004;2023-05-31T04:27:31;10.50;99.90
10433;DHT22;5263;48.680;9.004;2023-05-31T04:29:58;10.40;99.90
10433;DHT22;5263;48.680;9.004;2023-05-31T04:32:26;10.90;99.90
10433;DHT22;5263;48.680;9.004;2023-05-31T04:34:53;10.80;99.90
10433;DHT22;5263;48.680;9.004;2023-05-31T04:37:24;11.00;99.90
10433;DHT22;5263;48.680;9.004;2023-05-31T04:39:51;11.00;99.90
10433;DHT22;5263;48.680;9.004;2023-05-31T04:42:19;11.30;99.90
10433;DHT22;5263;48.680;9.004;2023-05-31T04:44:44;11.30;99.90
10433;DHT22;5263;48.680;9.004;2023-05-31T04:47:10;11.40;99.90
10433;DHT22;5263;48.680;9.004;2023-05-31T04:49:36;11.40;99.90
10433;DHT22;5263;48.680;9.004;2023-05-31T04:52:02;11.50;99.90
10433;DHT22;5263;48.680;9.004;2023-05-31T04:54:28;11.60;99.90
10433;DHT22;5263;48.680;9.004;2023-05-31T04:56:54;11.70;99.90
10433;DHT22;5263;48.680;9.004;2023-05-31T04:59:19;11.80;99.90
10433;DHT22;5263;48.680;9.004;2023-05-31T05:01:47;12.10;99.90
10433;DHT22;5263;48.680;9.004;2023-05-31T05:04:13;12.10;99.90
10433;DHT22;5263;48.680;9.004;2023-05-31T05:06:38;12.20;99.60
10433;DHT22;5263;48.680;9.004;2023-05-31T05:09:06;12.50;99.10
10433;DHT22;5263;48.680;9.004;2023-05-31T05:11:32;12.50;98.60
10433;DHT22;5263;48.680;9.004;2023-05-31T05:13:57;12.80;97.90
10433;DHT22;5263;48.680;9.004;2023-05-31T05:16:23;12.80;97.90
10433;DHT22;5263;48.680;9.004;2023-05-31T05:18:49;13.10;97.90
10433;DHT22;5263;48.680;9.004;2023-05-31T05:21:14;13.20;97.10
10433;DHT22;5263;48.680;9.004;2023-05-31T05:23:40;13.20;97.20
10433;DHT22;5263;48.680;9.004;2023-05-31T05:26:06;13.30;97.40
10433;DHT22;5263;48.680;9.004;2023-05-31T05:28:32;13.40;96.80
10433;DHT22;5263;48.680;9.004;2023-05-31T05:30:57;13.60;97.00
10433;DHT22;5263;48.680;9.004;2023-05-31T05:33:23;13.60;96.40
10433;DHT22;5263;48.680;9.004;2023-05-31T05:35:49;13.70;95.80
10433;DHT22;5263;48.680;9.004;2023-05-31T05:38:14;13.90;95.50
10433;DHT22;5263;48.680;9.004;2023-05-31T05:40:40;14.00;95.80
10433;DHT22;5263;48.680;9.004;2023-05-31T05:43:05;14.00;95.50
10433;DHT22;5263;48.680;9.004;2023-05-31T05:45:31;14.10;95.30
10433;DHT22;5263;48.680;9.004;2023-05-31T05:47:57;14.30;95.70
10433;DHT22;5263;48.680;9.004;2023-05-31T05:50:22;14.50;95.00
10433;DHT22;5263;48.680;9.004;2023-05-31T05:52:48;14.50;93.80
10433;DHT22;5263;48.680;9.004;2023-05-31T05:55:14;14.70;94.30
10433;DHT22;5263;48.680;9.004;2023-05-31T05:57:40;14.80;93.60
10433;DHT22;5263;48.680;9.004;2023-05-31T06:00:06;14.90;92.60
10433;DHT22;5263;48.680;9.004;2023-05-31T06:02:39;15.00;93.20
10433;DHT22;5263;48.680;9.004;2023-05-31T06:05:06;15.00;92.70
10433;DHT22;5263;48.680;9.004;2023-05-31T06:07:32;14.90;91.90
10433;DHT22;5263;48.680;9.004;2023-05-31T06:09:58;15.10;92.00
10433;DHT22;5263;48.680;9.004;2023-05-31T06:12:25;15.10;92.00
10433;DHT22;5263;48.680;9.004;2023-05-31T06:14:51;15.30;92.30
10433;DHT22;5263;48.680;9.004;2023-05-31T06:17:16;15.30;93.10
10433;DHT22;5263;48.680;9.004;2023-05-31T06:19:42;15.50;92.70
10433;DHT22;5263;48.680;9.004;2023-05-31T06:22:08;15.60;91.90
10433;DHT22;5263;48.680;9.004;2023-05-31T06:24:34;15.60;91.30
10433;DHT22;5263;48.680;9.004;2023-05-31T06:27:00;15.80;91.70
10433;DHT22;5263;48.680;9.004;2023-05-31T06:29:27;16.00;91.10
10433;DHT22;5263;48.680;9.004;2023-05-31T06:31:53;16.00;90.90
10433;DHT22;5263;48.680;9.004;2023-05-31T06:34:18;16.10;90.80
10433;DHT22;5263;48.680;9.004;2023-05-31T06:36:44;16.20;90.70
10433;DHT22;5263;48.680;9.004;2023-05-31T06:39:10;16.10;90.30
10433;DHT22;5263;48.680;9.004;2023-05-31T06:41:37;16.20;91.00
10433;DHT22;5263;48.680;9.004;2023-05-31T06:44:02;16.40;91.40
10433;DHT22;5263;48.680;9.004;2023-05-31T06:46:28;16.40;90.50
10433;DHT22;5263;48.680;9.004;2023-05-31T06:48:54;16.60;90.60
10433;DHT22;5263;48.680;9.004;2023-05-31T06:51:20;16.60;89.70
10433;DHT22;5263;48.680;9.004;2023-05-31T06:53:50;16.60;90.50
10433;DHT22;5263;48.680;9.004;2023-05-31T06:56:16;16.60;90.50
10433;DHT22;5263;48.680;9.004;2023-05-31T06:58:43;16.80;90.70
10433;DHT22;5263;48.680;9.004;2023-05-31T07:01:08;17.00;90.20
10433;DHT22;5263;48.680;9.004;2023-05-31T07:03:34;17.10;89.40
10433;DHT22;5263;48.680;9.004;2023-05-31T07:06:00;16.90;88.80
10433;DHT22;5263;48.680;9.004;2023-05-31T07:08:25;16.90;90.60
10433;DHT22;5263;48.680;9.004;2023-05-31T07:10:53;17.10;90.20
10433;DHT22;5263;48.680;9.004;2023-05-31T07:13:19;17.30;89.60
10433;DHT22;5263;48.680;9.004;2023-05-31T07:15:44;17.40;90.20
10433;DHT22;5263;48.680;9.004;2023-05-31T07:18:10;17.40;89.30
10433;DHT22;5263;48.680;9.004;2023-05-31T07:20:36;17.50;90.50
10433;DHT22;5263;48.680;9.004;2023-05-31T07:23:01;17.70;89.80
10433;DHT22;5263;48.680;9.004;2023-05-31T07:25:27;17.70;90.00
10433;DHT22;5263;48.680;9.004;2023-05-31T07:27:53;17.60;89.40
10433;DHT22;5263;48.680;9.004;2023-05-31T07:30:20;17.50;87.60
10433;DHT22;5263;48.680;9.004;2023-05-31T07:32:46;17.60;89.50
10433;DHT22;5263;48.680;9.004;2023-05-31T07:35:11;17.80;90.30
10433;DHT22;5263;48.680;9.004;2023-05-31T07:37:37;18.00;88.90
10433;DHT22;5263;48.680;9.004;2023-05-31T07:40:02;18.20;89.40
10433;DHT22;5263;48.680;9.004;2023-05-31T07:42:30;18.10;86.90
10433;DHT22;5263;48.680;9.004;2023-05-31T07:44:57;18.40;88.80
10433;DHT22;5263;48.680;9.004;2023-05-31T07:47:22;18.50;87.50
10433;DHT22;5263;48.680;9.004;2023-05-31T07:49:48;18.60;86.70
10433;DHT22;5263;48.680;9.004;2023-05-31T07:52:17;18.70;87.60
10433;DHT22;5263;48.680;9.004;2023-05-31T07:54:49;18.70;84.60
10433;DHT22;5263;48.680;9.004;2023-05-31T07:57:15;18.40;84.50
10433;DHT22;5263;48.680;9.004;2023-05-31T07:59:41;18.60;86.40
10433;DHT22;5263;48.680;9.004;2023-05-31T08:02:07;18.70;84.80
10433;DHT22;5263;48.680;9.004;2023-05-31T08:04:32;18.70;84.80
10433;DHT22;5263;48.680;9.004;2023-05-31T08:06:58;19.00;89.30
10433;DHT22;5263;48.680;9.004;2023-05-31T08:09:24;19.20;86.40
10433;DHT22;5263;48.680;9.004;2023-05-31T08:11:51;19.30;85.10
10433;DHT22;5263;48.680;9.004;2023-05-31T08:14:17;19.50;85.60
10433;DHT22;5263;48.680;9.004;2023-05-31T08:16:43;19.60;85.70
10433;DHT22;5263;48.680;9.004;2023-05-31T08:19:08;19.60;84.30
10433;DHT22;5263;48.680;9.004;2023-05-31T08:21:34;19.80;83.40
10433;DHT22;5263;48.680;9.004;2023-05-31T08:24:03;19.80;82.70
10433;DHT22;5263;48.680;9.004;2023-05-31T08:26:31;19.50;79.70
10433;DHT22;5263;48.680;9.004;2023-05-31T08:28:56;19.60;81.40
10433;DHT22;5263;48.680;9.004;2023-05-31T08:31:22;19.80;82.60
10433;DHT22;5263;48.680;9.004;2023-05-31T08:33:58;19.80;80.60
10433;DHT22;5263;48.680;9.004;2023-05-31T08:36:24;19.90;83.40
10433;DHT22;5263;48.680;9.004;2023-05-31T08:38:51;20.10;81.90
10433;DHT22;5263;48.680;9.004;2023-05-31T08:41:17;20.20;81.40
10433;DHT22;5263;48.680;9.004;2023-05-31T08:43:44;20.40;81.90
10433;DHT22;5263;48.680;9.004;2023-05-31T08:46:10;20.30;78.30
10433;DHT22;5263;48.680;9.004;2023-05-31T08:49:00;20.20;79.30
10433;DHT22;5263;48.680;9.004;2023-05-31T08:51:27;20.00;79.20
10433;DHT22;5263;48.680;9.004;2023-05-31T08:53:55;20.00;77.90
10433;DHT22;5263;48.680;9.004;2023-05-31T08:56:22;20.20;80.70
10433;DHT22;5263;48.680;9.004;2023-05-31T08:58:50;20.30;79.50
10433;DHT22;5263;48.680;9.004;2023-05-31T09:01:17;20.40;79.30
10433;DHT22;5263;48.680;9.004;2023-05-31T09:03:44;20.50;79.70
10433;DHT22;5263;48.680;9.004;2023-05-31T09:06:10;20.80;82.70
10433;DHT22;5263;48.680;9.004;2023-05-31T09:08:36;20.90;79.40
10433;DHT22;5263;48.680;9.004;2023-05-31T09:11:02;20.40;78.00
10433;DHT22;5263;48.680;9.004;2023-05-31T09:13:28;20.60;78.40
10433;DHT22;5263;48.680;9.004;2023-05-31T09:15:54;20.70;77.30
10433;DHT22;5263;48.680;9.004;2023-05-31T09:18:20;21.00;78.90
10433;DHT22;5263;48.680;9.004;2023-05-31T09:20:48;21.20;76.80
10433;DHT22;5263;48.680;9.004;2023-05-31T09:23:16;21.20;76.90
10433;DHT22;5263;48.680;9.004;2023-05-31T09:25:44;21.30;76.70
10433;DHT22;5263;48.680;9.004;2023-05-31T09:28:11;21.20;77.30
10433;DHT22;5263;48.680;9.004;2023-05-31T09:30:37;21.20;77.50
10433;DHT22;5263;48.680;9.004;2023-05-31T09:33:02;21.40;76.80
10433;DHT22;5263;48.680;9.004;2023-05-31T09:35:28;21.50;73.40
10433;DHT22;5263;48.680;9.004;2023-05-31T09:37:54;21.30;72.20
10433;DHT22;5263;48.680;9.004;2023-05-31T09:40:24;21.30;74.30
10433;DHT22;5263;48.680;9.004;2023-05-31T09:42:51;21.40;74.90
10433;DHT22;5263;48.680;9.004;2023-05-31T09:45:17;21.40;73.10
10433;DHT22;5263;48.680;9.004;2023-05-31T09:47:44;21.30;72.20
10433;DHT22;5263;48.680;9.004;2023-05-31T09:50:21;21.60;76.80
10433;DHT22;5263;48.680;9.004;2023-05-31T09:52:49;21.80;75.50
10433;DHT22;5263;48.680;9.004;2023-05-31T09:55:20;21.90;74.50
10433;DHT22;5263;48.680;9.004;2023-05-31T09:57:45;21.90;73.70
10433;DHT22;5263;48.680;9.004;2023-05-31T10:00:13;21.90;77.70
10433;DHT22;5263;48.680;9.004;2023-05-31T10:02:53;22.40;75.90
10433;DHT22;5263;48.680;9.004;2023-05-31T10:05:20;22.50;81.20
10433;DHT22;5263;48.680;9.004;2023-05-31T10:07:55;22.60;73.10
10433;DHT22;5263;48.680;9.004;2023-05-31T10:10:21;22.60;71.90
10433;DHT22;5263;48.680;9.004;2023-05-31T10:12:51;22.90;76.30
10433;DHT22;5263;48.680;9.004;2023-05-31T10:15:21;23.00;70.70
10433;DHT22;5263;48.680;9.004;2023-05-31T10:18:00;22.90;68.30
10433;DHT22;5263;48.680;9.004;2023-05-31T10:20:38;22.90;70.00
10433;DHT22;5263;48.680;9.004;2023-05-31T10:23:09;23.50;72.30
10433;DHT22;5263;48.680;9.004;2023-05-31T10:25:44;23.60;68.90
10433;DHT22;5263;48.680;9.004;2023-05-31T10:28:14;24.10;67.50
10433;DHT22;5263;48.680;9.004;2023-05-31T10:30:43;25.90;63.40
10433;DHT22;5263;48.680;9.004;2023-05-31T10:33:14;27.70;58.60
10433;DHT22;5263;48.680;9.004;2023-05-31T10:35:41;27.40;54.70
10433;DHT22;5263;48.680;9.004;2023-05-31T10:38:07;28.90;54.90
10433;DHT22;5263;48.680;9.004;2023-05-31T10:40:37;28.80;56.80
10433;DHT22;5263;48.680;9.004;2023-05-31T10:43:18;30.10;53.40
10433;DHT22;5263;48.680;9.004;2023-05-31T10:45:50;28.20;50.20
10433;DHT22;5263;48.680;9.004;2023-05-31T10:48:26;26.40;52.80
10433;DHT22;5263;48.680;9.004;2023-05-31T10:50:56;27.70;56.80
10433;DHT22;5263;48.680;9.004;2023-05-31T10:53:37;30.30;51.20
10433;DHT22;5263;48.680;9.004;2023-05-31T10:56:07;29.70;47.60
10433;DHT22;5263;48.680;9.004;2023-05-31T10:58:38;29.80;47.80
10433;DHT22;5263;48.680;9.004;2023-05-31T11:01:12;29.70;47.90
10433;DHT22;5263;48.680;9.004;2023-05-31T11:03:46;31.10;45.40
10433;DHT22;5263;48.680;9.004;2023-05-31T11:06:16;31.00;45.70
10433;DHT22;5263;48.680;9.004;2023-05-31T11:09:11;33.40;44.60
10433;DHT22;5263;48.680;9.004;2023-05-31T11:14:06;32.90;42.80
10433;DHT22;5263;48.680;9.004;2023-05-31T11:16:34;32.30;41.30
10433;DHT22;5263;48.680;9.004;2023-05-31T11:19:21;31.00;44.70
10433;DHT22;5263;48.680;9.004;2023-05-31T11:21:52;29.40;47.20
10433;DHT22;5263;48.680;9.004;2023-05-31T11:24:39;28.60;48.80
10433;DHT22;5263;48.680;9.004;2023-05-31T11:27:17;31.20;45.70
10433;DHT22;5263;48.680;9.004;2023-05-31T11:35:08;31.00;43.40
10433;DHT22;5263;48.680;9.004;2023-05-31T11:37:36;31.70;43.50
10433;DHT22;5263;48.680;9.004;2023-05-31T11:40:04;33.20;38.90
10433;DHT22;5263;48.680;9.004;2023-05-31T11:42:32;31.10;41.60
10433;DHT22;5263;48.680;9.004;2023-05-31T11:45:03;30.50;44.40
10433;DHT22;5263;48.680;9.004;2023-05-31T11:47:33;30.60;44.10
10433;DHT22;5263;48.680;9.004;2023-05-31T11:50:00;31.10;43.60
10433;DHT22;5263;48.680;9.004;2023-05-31T11:52:27;32.10;42.00
10433;DHT22;5263;48.680;9.004;2023-05-31T11:54:54;32.00;40.10
10433;DHT22;5263;48.680;9.004;2023-05-31T11:57:21;32.90;39.20
10433;DHT22;5263;48.680;9.004;2023-05-31T11:59:47;33.40;38.80
10433;DHT22;5263;48.680;9.004;2023-05-31T12:02:13;33.70;38.90
10433;DHT22;5263;48.680;9.004;2023-05-31T12:04:40;32.90;39.70
10433;DHT22;5263;48.680;9.004;2023-05-31T12:07:10;32.70;38.80
10433;DHT22;5263;48.680;9.004;2023-05-31T12:09:37;31.20;39.70
10433;DHT22;5263;48.680;9.004;2023-05-31T12:12:03;30.70;43.30
10433;DHT22;5263;48.680;9.004;2023-05-31T12:14:31;30.40;39.50
10433;DHT22;5263;48.680;9.004;2023-05-31T12:17:01;29.90;42.40
10433;DHT22;5263;48.680;9.004;2023-05-31T12:19:28;32.70;40.10
10433;DHT22;5263;48.680;9.004;2023-05-31T12:21:54;34.60;39.20
10433;DHT22;5263;48.680;9.004;2023-05-31T12:24:19;35.10;36.30
10433;DHT22;5263;48.680;9.004;2023-05-31T12:26:46;32.80;37.50
10433;DHT22;5263;48.680;9.004;2023-05-31T12:29:15;32.40;40.20
10433;DHT22;5263;48.680;9.004;2023-05-31T12:31:41;32.50;38.70
10433;DHT22;5263;48.680;9.004;2023-05-31T12:34:08;32.30;39.20
10433;DHT22;5263;48.680;9.004;2023-05-31T12:36:42;32.90;40.60
10433;DHT22;5263;48.680;9.004;2023-05-31T12:39:13;30.50;40.40
10433;DHT22;5263;48.680;9.004;2023-05-31T12:41:44;30.50;39.10
10433;DHT22;5263;48.680;9.004;2023-05-31T12:44:12;32.70;38.00
10433;DHT22;5263;48.680;9.004;2023-05-31T12:46:43;32.80;38.20
10433;DHT22;5263;48.680;9.004;2023-05-31T12:49:18;33.60;34.60
10433;DHT22;5263;48.680;9.004;2023-05-31T12:51:44;32.80;35.70
10433;DHT22;5263;48.680;9.004;2023-05-31T12:54:15;32.50;39.80
10433;DHT22;5263;48.680;9.004;2023-05-31T12:56:41;34.90;35.70
10433;DHT22;5263;48.680;9.004;2023-05-31T12:59:07;34.50;34.40
10433;DHT22;5263;48.680;9.004;2023-05-31T13:01:35;35.50;34.10
10433;DHT22;5263;48.680;9.004;2023-05-31T13:04:00;34.90;34.20
10433;DHT22;5263;48.680;9.004;2023-05-31T13:06:26;33.90;34.70
10433;DHT22;5263;48.680;9.004;2023-05-31T13:08:52;33.80;34.70
10433;DHT22;5263;48.680;9.004;2023-05-31T13:11:17;33.60;34.80
10433;DHT22;5263;48.680;9.004;2023-05-31T13:13:43;32.80;35.00
10433;DHT22;5263;48.680;9.004;2023-05-31T13:16:09;32.90;35.00
10433;DHT22;5263;48.680;9.004;2023-05-31T13:18:34;35.00;33.90
10433;DHT22;5263;48.680;9.004;2023-05-31T13:21:00;33.30;34.30
10433;DHT22;5263;48.680;9.004;2023-05-31T13:23:26;33.40;35.60
10433;DHT22;5263;48.680;9.004;2023-05-31T13:25:51;33.90;32.80
10433;DHT22;5263;48.680;9.004;2023-05-31T13:28:17;35.40;33.00
10433;DHT22;5263;48.680;9.004;2023-05-31T13:30:43;34.00;35.20
10433;DHT22;5263;48.680;9.004;2023-05-31T13:33:09;33.60;33.60
10433;DHT22;5263;48.680;9.004;2023-05-31T13:35:34;33.80;32.40
10433;DHT22;5263;48.680;9.004;2023-05-31T13:38:02;33.30;31.90
10433;DHT22;5263;48.680;9.004;2023-05-31T13:40:28;34.70;31.30
10433;DHT22;5263;48.680;9.004;2023-05-31T13:42:53;31.50;33.30
10433;DHT22;5263;48.680;9.004;2023-05-31T13:45:19;32.40;35.10
10433;DHT22;5263;48.680;9.004;2023-05-31T13:47:45;32.10;36.00
10433;DHT22;5263;48.680;9.004;2023-05-31T13:50:10;32.70;34.00
10433;DHT22;5263;48.680;9.004;2023-05-31T13:52:36;33.20;33.60
10433;DHT22;5263;48.680;9.004;2023-05-31T13:55:01;33.60;32.50
10433;DHT22;5263;48.680;9.004;2023-05-31T13:57:27;33.80;31.00
10433;DHT22;5263;48.680;9.004;2023-05-31T13:59:53;34.30;32.10
10433;DHT22;5263;48.680;9.004;2023-05-31T14:02:18;32.80;34.40
10433;DHT22;5263;48.680;9.004;2023-05-31T14:04:44;34.40;31.50
10433;DHT22;5263;48.680;9.004;2023-05-31T14:07:10;34.70;31.40
10433;DHT22;5263;48.680;9.004;2023-05-31T14:09:36;32.70;31.60
10433;DHT22;5263;48.680;9.004;2023-05-31T14:12:02;31.30;32.80
10433;DHT22;5263;48.680;9.004;2023-05-31T14:14:28;33.60;32.80
10433;DHT22;5263;48.680;9.004;2023-05-31T14:16:54;34.10;32.00
10433;DHT22;5263;48.680;9.004;2023-05-31T14:19:19;34.30;31.20
10433;DHT22;5263;48.680;9.004;2023-05-31T14:21:46;35.00;31.00
10433;DHT22;5263;48.680;9.004;2023-05-31T14:24:11;34.10;32.00
10433;DHT22;5263;48.680;9.004;2023-05-31T14:26:37;33.80;31.50
10433;DHT22;5263;48.680;9.004;2023-05-31T14:29:02;33.10;33.20
10433;DHT22;5263;48.680;9.004;2023-05-31T14:31:28;34.50;31.40
10433;DHT22;5263;48.680;9.004;2023-05-31T14:33:53;31.80;31.30
10433;DHT22;5263;48.680;9.004;2023-05-31T14:36:19;33.70;32.90
10433;DHT22;5263;48.680;9.004;2023-05-31T14:38:45;34.40;30.70
10433;DHT22;5263;48.680;9.004;2023-05-31T14:41:10;33.50;29.90
10433;DHT22;5263;48.680;9.004;2023-05-31T14:43:36;33.80;30.30
10433;DHT22;5263;48.680;9.004;2023-05-31T14:46:01;33.20;31.40
10433;DHT22;5263;48.680;9.004;2023-05-31T14:48:27;32.40;32.30
10433;DHT22;5263;48.680;9.004;2023-05-31T14:50:52;32.40;32.10
10433;DHT22;5263;48.680;9.004;2023-05-31T14:53:18;32.00;30.00
10433;DHT22;5263;48.680;9.004;2023-05-31T14:55:44;28.20;34.50
10433;DHT22;5263;48.680;9.004;2023-05-31T14:58:10;29.90;35.10
10433;DHT22;5263;48.680;9.004;2023-05-31T15:00:36;30.80;31.90
10433;DHT22;5263;48.680;9.004;2023-05-31T15:03:02;29.70;34.00
10433;DHT22;5263;48.680;9.004;2023-05-31T15:05:27;28.70;34.30
10433;DHT22;5263;48.680;9.004;2023-05-31T15:07:53;27.70;36.50
10433;DHT22;5263;48.680;9.004;2023-05-31T15:10:18;27.50;36.40
10433;DHT22;5263;48.680;9.004;2023-05-31T15:12:46;26.50;37.70
10433;DHT22;5263;48.680;9.004;2023-05-31T15:15:13;26.20;38.50
10433;DHT22;5263;48.680;9.004;2023-05-31T15:17:40;26.00;41.20
10433;DHT22;5263;48.680;9.004;2023-05-31T15:20:06;26.00;39.70
10433;DHT22;5263;48.680;9.004;2023-05-31T15:22:32;25.70;40.20
10433;DHT22;5263;48.680;9.004;2023-05-31T15:24:58;25.00;39.30
10433;DHT22;5263;48.680;9.004;2023-05-31T15:27:23;25.00;40.90
10433;DHT22;5263;48.680;9.004;2023-05-31T15:29:49;25.00;41.40
10433;DHT22;5263;48.680;9.004;2023-05-31T15:32:15;25.00;42.80
10433;DHT22;5263;48.680;9.004;2023-05-31T15:34:40;24.60;41.30
10433;DHT22;5263;48.680;9.004;2023-05-31T15:37:06;24.50;41.80
10433;DHT22;5263;48.680;9.004;2023-05-31T15:39:32;24.90;43.40
10433;DHT22;5263;48.680;9.004;2023-05-31T15:41:57;24.60;42.40
10433;DHT22;5263;48.680;9.004;2023-05-31T15:44:25;24.80;42.80
10433;DHT22;5263;48.680;9.004;2023-05-31T15:46:51;25.00;42.50
10433;DHT22;5263;48.680;9.004;2023-05-31T15:49:16;24.70;41.80
10433;DHT22;5263;48.680;9.004;2023-05-31T15:51:42;24.60;42.20
10433;DHT22;5263;48.680;9.004;2023-05-31T15:54:07;24.80;43.20
10433;DHT22;5263;48.680;9.004;2023-05-31T15:56:33;24.80;43.60